createdAt,value
2022-08-24T00:02:01.762Z,96337.25
2022-08-24T00:04:32.125Z,96342.40
2022-08-24T00:07:02.464Z,96346.91
2022-08-24T00:09:32.883Z,96347.54
2022-08-24T00:12:02.769Z,96348.15
2022-08-24T00:14:32.524Z,96346.05
2022-08-24T00:17:01.811Z,96347.27
2022-08-24T00:19:30.223Z,96350.12
2022-08-24T00:22:00.449Z,96353.04
2022-08-24T00:24:28.803Z,96352.77
2022-08-24T00:26:57.574Z,96353.70
2022-08-24T00:29:26.494Z,96355.23
2022-08-24T00:31:55.035Z,96359.90
2022-08-24T00:34:23.450Z,96365.18
2022-08-24T00:36:51.814Z,96364.58
2022-08-24T00:39:20.831Z,96363.96
2022-08-24T00:41:51.160Z,96357.20
2022-08-24T00:44:21.680Z,96366.20
2022-08-24T00:46:53.008Z,96366.88
2022-08-24T00:49:44.424Z,96364.52
2022-08-24T00:52:22.124Z,96360.33
2022-08-24T00:54:58.398Z,96361.24
2022-08-24T00:57:31.988Z,96357.63
2022-08-24T01:00:06.296Z,96353.94
2022-08-24T01:02:38.933Z,96355.16
2022-08-24T01:05:11.241Z,96357.13
2022-08-24T01:07:40.750Z,96351.46
2022-08-24T01:10:12.430Z,96352.38
2022-08-24T01:12:59.643Z,96350.52
2022-08-24T01:15:34.380Z,96349.49
2022-08-24T01:18:22.890Z,96351.55
2022-08-24T01:21:00.101Z,96352.97
2022-08-24T01:23:36.482Z,96350.17
2022-08-24T01:26:08.569Z,96353.31
2022-08-24T01:28:41.147Z,96353.84
2022-08-24T01:31:10.531Z,96355.50
2022-08-24T01:33:39.093Z,96356.07
2022-08-24T01:36:28.530Z,96351.59
2022-08-24T01:39:01.605Z,96346.42
2022-08-24T01:41:29.990Z,96344.20
2022-08-24T01:43:59.598Z,96335.89
2022-08-24T01:46:29.600Z,96328.67
2022-08-24T01:48:58.565Z,96322.99
2022-08-24T01:51:31.598Z,96321.16
2022-08-24T01:54:03.180Z,96320.77
2022-08-24T01:56:32.978Z,96315.96
2022-08-24T01:59:02.422Z,96316.23
2022-08-24T02:01:36.888Z,96313.69
2022-08-24T02:04:08.707Z,96308.41
2022-08-24T02:06:39.195Z,96302.77
2022-08-24T02:09:09.772Z,96298.44
2022-08-24T02:11:41.116Z,96292.70
2022-08-24T02:14:14.521Z,96286.83
2022-08-24T02:16:43.529Z,96280.94
2022-08-24T02:19:11.907Z,96277.83
2022-08-24T02:21:40.707Z,96277.20
2022-08-24T02:24:09.328Z,96276.23
2022-08-24T02:26:37.670Z,96273.67
2022-08-24T02:29:06.034Z,96271.69
2022-08-24T02:31:34.873Z,96263.27
2022-08-24T02:34:05.029Z,96264.27
2022-08-24T02:36:33.435Z,96260.00
2022-08-24T02:39:02.321Z,96253.94
2022-08-24T02:41:32.749Z,96250.48
2022-08-24T02:44:01.296Z,96247.93
2022-08-24T02:46:31.420Z,96248.75
2022-08-24T02:49:11.197Z,96249.17
2022-08-24T02:51:45.518Z,96254.67
2022-08-24T02:54:19.675Z,96259.25
2022-08-24T02:56:49.427Z,96256.45
2022-08-24T02:59:18.384Z,96258.21
2022-08-24T03:01:49.856Z,96264.67
2022-08-24T03:04:19.596Z,96268.21
2022-08-24T03:06:48.209Z,96272.50
2022-08-24T03:09:18.350Z,96281.50
2022-08-24T03:11:46.676Z,96284.69
2022-08-24T03:14:15.125Z,96292.17
2022-08-24T03:16:45.614Z,96294.67
2022-08-24T03:19:15.769Z,96293.71
2022-08-24T03:21:44.368Z,96294.19
2022-08-24T03:24:13.276Z,96293.19
2022-08-24T03:26:44.052Z,96292.36
2022-08-24T03:29:15.968Z,96289.45
2022-08-24T03:31:45.594Z,96288.66
2022-08-24T03:34:15.096Z,96292.48
2022-08-24T03:36:46.902Z,96293.05
2022-08-24T03:39:17.207Z,96291.44
2022-08-24T03:41:46.108Z,96295.05
2022-08-24T03:44:14.451Z,96299.13
2022-08-24T03:46:43.049Z,96301.15
2022-08-24T03:49:12.285Z,96306.33
2022-08-24T03:51:41.754Z,96307.27
2022-08-24T03:54:12.019Z,96307.66
2022-08-24T03:56:41.828Z,96313.20
2022-08-24T03:59:11.161Z,96317.16
2022-08-24T04:01:41.832Z,96317.46
2022-08-24T04:04:11.259Z,96311.14
2022-08-24T04:06:44.573Z,96310.35
2022-08-24T04:09:13.775Z,96317.35
2022-08-24T04:11:46.303Z,96321.62
2022-08-24T04:14:26.681Z,96317.14
2022-08-24T04:16:59.734Z,96323.48
2022-08-24T04:19:35.309Z,96326.23
2022-08-24T04:22:04.108Z,96325.56
2022-08-24T04:24:32.778Z,96328.24
2022-08-24T04:27:01.161Z,96332.33
2022-08-24T04:29:29.559Z,96334.78
2022-08-24T04:31:59.466Z,96343.36
2022-08-24T04:34:28.240Z,96345.30
2022-08-24T04:36:58.500Z,96336.30
2022-08-24T04:39:28.210Z,96332.71
2022-08-24T04:42:03.114Z,96339.16
2022-08-24T04:44:36.578Z,96345.44
2022-08-24T04:47:05.756Z,96344.54
2022-08-24T04:49:34.148Z,96343.29
2022-08-24T04:52:02.957Z,96344.05
2022-08-24T04:54:32.505Z,96332.21
2022-08-24T04:57:08.403Z,96329.29
2022-08-24T04:59:37.541Z,96333.30
2022-08-24T05:02:05.960Z,96334.48
2022-08-24T05:04:34.386Z,96338.04
2022-08-24T05:07:02.728Z,96338.20
2022-08-24T05:09:31.701Z,96337.02
2022-08-24T05:12:01.935Z,96329.25
2022-08-24T05:14:33.796Z,96326.23
2022-08-24T05:17:02.844Z,96328.28
2022-08-24T05:19:32.353Z,96329.45
2022-08-24T05:22:01.601Z,96326.67
2022-08-24T05:24:31.323Z,96325.80
2022-08-24T05:27:00.633Z,96332.28
2022-08-24T05:29:29.298Z,96335.73
2022-08-24T05:31:59.723Z,96332.73
2022-08-24T05:34:30.660Z,96327.69
2022-08-24T05:36:59.162Z,96330.38
2022-08-24T05:39:36.743Z,96326.58
2022-08-24T05:42:08.680Z,96327.91
2022-08-24T05:44:39.829Z,96327.55
2022-08-24T05:47:08.187Z,96332.10
2022-08-24T05:49:41.223Z,96331.79
2022-08-24T05:52:10.448Z,96336.64
2022-08-24T05:54:38.806Z,96336.25
2022-08-24T05:57:07.201Z,96348.95
2022-08-24T05:59:41.019Z,96352.75
2022-08-24T06:02:16.001Z,96349.29
2022-08-24T06:04:45.318Z,96346.90
2022-08-24T06:07:14.576Z,96345.35
2022-08-24T06:09:46.602Z,96351.10
2022-08-24T06:12:14.994Z,96352.33
2022-08-24T06:14:48.054Z,96358.14
2022-08-24T06:17:19.662Z,96364.41
2022-08-24T06:19:48.624Z,96364.08
2022-08-24T06:22:17.291Z,96362.61
2022-08-24T06:25:04.296Z,96361.41
2022-08-24T06:27:32.789Z,96356.20
2022-08-24T06:30:07.212Z,96354.55
2022-08-24T06:32:45.177Z,96354.21
2022-08-24T06:35:27.473Z,96357.20
2022-08-24T06:37:57.954Z,96357.05
2022-08-24T06:40:26.748Z,96357.55
2022-08-24T06:42:55.444Z,96360.95
2022-08-24T06:45:33.993Z,96363.95
2022-08-24T06:48:02.620Z,96361.77
2022-08-24T06:50:30.975Z,96369.27
2022-08-24T06:53:01.664Z,96373.45
2022-08-24T06:55:30.649Z,96379.91
2022-08-24T06:58:01.063Z,96379.15
2022-08-24T07:00:30.878Z,96379.56
2022-08-24T07:02:59.282Z,96382.38
2022-08-24T07:05:29.070Z,96377.85
2022-08-24T07:08:33.453Z,96383.02
2022-08-24T07:11:02.903Z,96382.92
2022-08-24T07:13:31.758Z,96385.74
2022-08-24T07:16:01.249Z,96389.50
2022-08-24T07:18:29.920Z,96388.47
2022-08-24T07:21:03.925Z,96393.20
2022-08-24T07:23:47.514Z,96393.20
2022-08-24T07:26:22.938Z,96392.35
2022-08-24T07:29:05.324Z,96395.82
2022-08-24T07:31:44.175Z,96399.47
2022-08-24T07:34:26.203Z,96409.69
2022-08-24T07:36:54.999Z,96415.40
2022-08-24T07:39:23.558Z,96416.32
2022-08-24T07:42:11.459Z,96415.12
2022-08-24T07:44:40.552Z,96422.00
2022-08-24T07:47:34.215Z,96424.73
2022-08-24T07:49:59.445Z,96424.55
2022-08-24T07:52:28.176Z,96427.11
2022-08-24T07:54:57.222Z,96439.96
2022-08-24T07:57:25.796Z,96442.77
2022-08-24T07:59:58.606Z,96440.30
2022-08-24T08:02:36.409Z,96436.98
2022-08-24T08:05:06.163Z,96436.39
2022-08-24T08:07:34.656Z,96441.48
2022-08-24T08:10:04.159Z,96445.40
2022-08-24T08:12:35.176Z,96452.00
2022-08-24T08:15:05.198Z,96454.46
2022-08-24T08:17:33.977Z,96456.21
2022-08-24T08:20:04.007Z,96463.84
2022-08-24T08:22:51.043Z,96465.98
2022-08-24T08:25:54.741Z,96474.36
2022-08-24T08:28:58.480Z,96475.04
2022-08-24T08:31:27.291Z,96474.88
2022-08-24T08:33:55.803Z,96473.79
2022-08-24T08:36:25.037Z,96460.70
2022-08-24T08:38:53.463Z,96458.15
2022-08-24T08:41:44.067Z,96449.66
2022-08-24T08:44:35.851Z,96458.52
2022-08-24T08:47:37.817Z,96450.77
2022-08-24T08:50:29.319Z,96438.81
2022-08-24T08:53:19.154Z,96445.17
2022-08-24T08:56:11.854Z,96444.57
2022-08-24T08:58:59.340Z,96443.51
2022-08-24T09:01:57.750Z,96443.88
2022-08-24T09:05:05.385Z,96446.67
2022-08-24T09:07:56.044Z,96445.24
2022-08-24T09:10:24.266Z,96444.08
2022-08-24T09:13:17.262Z,96439.85
2022-08-24T09:16:11.313Z,96432.77
2022-08-24T09:19:09.809Z,96418.23
2022-08-24T09:21:47.219Z,96397.89
2022-08-24T09:24:47.443Z,96396.42
2022-08-24T09:28:01.387Z,96415.91
2022-08-24T09:30:49.325Z,96436.53
2022-08-24T09:33:22.682Z,96438.67
2022-08-24T09:36:08.234Z,96439.33
2022-08-24T09:39:00.847Z,96440.98
2022-08-24T09:41:42.682Z,96433.80
2022-08-24T09:44:29.494Z,96432.73
2022-08-24T09:47:42.742Z,96433.14
2022-08-24T09:50:34.886Z,96432.27
2022-08-24T09:53:21.344Z,96437.95
2022-08-24T09:56:25.175Z,96437.92
2022-08-24T09:59:08.639Z,96437.12
2022-08-24T10:01:48.881Z,96434.41
2022-08-24T10:04:43.551Z,96435.27
2022-08-24T10:07:24.535Z,96434.67
2022-08-24T10:10:14.387Z,96430.30
2022-08-24T10:13:07.677Z,96425.30
2022-08-24T10:15:55.466Z,96417.95
2022-08-24T10:18:38.858Z,96413.85
2022-08-24T10:21:25.344Z,96416.20
2022-08-24T10:24:13.645Z,96412.85
2022-08-24T10:26:47.731Z,96411.37
2022-08-24T10:29:50.328Z,96408.21
2022-08-24T10:32:57.365Z,96410.23
2022-08-24T10:35:34.130Z,96413.09
2022-08-24T10:38:46.034Z,96415.96
2022-08-24T10:41:46.864Z,96414.89
2022-08-24T10:44:46.813Z,96415.60
2022-08-24T10:47:22.804Z,96415.16
2022-08-24T10:50:12.366Z,96417.82
2022-08-24T10:52:53.527Z,96419.66
2022-08-24T10:55:29.825Z,96417.46
2022-08-24T10:58:35.084Z,96415.10
2022-08-24T11:01:17.601Z,96408.96
2022-08-24T11:03:59.670Z,96405.11
2022-08-24T11:06:33.470Z,96406.98
2022-08-24T11:09:07.573Z,96407.62
2022-08-24T11:11:40.608Z,96404.84
2022-08-24T11:14:25.016Z,96405.73
2022-08-24T11:16:57.470Z,96408.42
2022-08-24T11:19:26.295Z,96404.77
2022-08-24T11:21:57.307Z,96403.04
2022-08-24T11:24:46.263Z,96401.59
2022-08-24T11:27:17.376Z,96403.44
2022-08-24T11:29:51.976Z,96403.13
2022-08-24T11:32:38.807Z,96403.28
2022-08-24T11:35:19.107Z,96402.95
2022-08-24T11:37:49.346Z,96403.60
2022-08-24T11:40:20.747Z,96397.23
2022-08-24T11:43:29.558Z,96394.77
2022-08-24T11:46:10.064Z,96391.44
2022-08-24T11:49:16.314Z,96388.86
2022-08-24T11:52:11.770Z,96392.31
2022-08-24T11:54:53.297Z,96391.51
2022-08-24T11:57:35.731Z,96388.42
2022-08-24T12:00:18.940Z,96387.73
2022-08-24T12:03:00.705Z,96390.27
2022-08-24T12:05:52.211Z,96388.15
2022-08-24T12:08:42.132Z,96384.79
2022-08-24T12:11:33.345Z,96386.17
2022-08-24T12:14:47.007Z,96382.02
2022-08-24T12:17:45.852Z,96383.48
2022-08-24T12:20:32.644Z,96381.32
2022-08-24T12:23:05.674Z,96379.58
2022-08-24T12:25:56.830Z,96380.16
2022-08-24T12:28:30.571Z,96376.41
2022-08-24T12:31:08.133Z,96373.41
2022-08-24T12:33:40.331Z,96372.83
2022-08-24T12:36:20.498Z,96375.40
2022-08-24T12:39:00.912Z,96374.99
2022-08-24T12:41:36.766Z,96374.00
2022-08-24T12:44:15.000Z,96374.40
2022-08-24T12:46:44.946Z,96376.37
2022-08-24T12:49:22.250Z,96377.92
2022-08-24T12:51:59.544Z,96378.65
2022-08-24T12:55:15.206Z,96375.20
2022-08-24T12:58:02.326Z,96381.21
2022-08-24T13:00:47.128Z,96382.20
2022-08-24T13:03:36.346Z,96385.05
2022-08-24T13:06:28.698Z,96383.23
2022-08-24T13:09:11.917Z,96383.23
2022-08-24T13:11:40.653Z,96384.20
2022-08-24T13:14:23.683Z,96384.52
2022-08-24T13:16:58.123Z,96381.05
2022-08-24T13:19:26.478Z,96379.35
2022-08-24T13:22:10.152Z,96383.35
2022-08-24T13:24:45.117Z,96377.77
2022-08-24T13:27:13.433Z,96379.21
2022-08-24T13:29:45.947Z,96375.11
2022-08-24T13:32:35.848Z,96373.42
2022-08-24T13:35:23.827Z,96374.23
2022-08-24T13:38:26.447Z,96368.34
2022-08-24T13:41:21.679Z,96365.34
2022-08-24T13:44:02.787Z,96363.03
2022-08-24T13:47:12.061Z,96367.81
2022-08-24T13:49:55.478Z,96365.55
2022-08-24T13:52:48.439Z,96367.70
2022-08-24T13:55:36.211Z,96370.58
2022-08-24T13:58:07.911Z,96368.35
2022-08-24T14:00:39.791Z,96368.17
2022-08-24T14:03:21.156Z,96373.75
2022-08-24T14:06:15.597Z,96371.09
2022-08-24T14:09:17.898Z,96372.79
2022-08-24T14:12:07.561Z,96369.27
2022-08-24T14:15:02.818Z,96369.52
2022-08-24T14:17:59.567Z,96365.23
2022-08-24T14:20:49.641Z,96365.42
2022-08-24T14:23:17.900Z,96365.21
2022-08-24T14:25:49.402Z,96366.23
2022-08-24T14:28:23.889Z,96365.86
2022-08-24T14:31:30.250Z,96362.96
2022-08-24T14:34:31.842Z,96362.07
2022-08-24T14:37:18.649Z,96365.43
2022-08-24T14:40:02.258Z,96364.40
2022-08-24T14:43:11.308Z,96359.94
2022-08-24T14:45:48.777Z,96359.88
2022-08-24T14:48:32.639Z,96357.73
2022-08-24T14:51:19.684Z,96358.44
2022-08-24T14:54:13.001Z,96359.58
2022-08-24T14:57:07.638Z,96356.63
2022-08-24T14:59:38.729Z,96359.33
2022-08-24T15:02:40.834Z,96357.73
2022-08-24T15:05:25.650Z,96351.56
2022-08-24T15:08:16.202Z,96355.14
2022-08-24T15:10:57.782Z,96349.86
2022-08-24T15:13:43.745Z,96351.63
2022-08-24T15:16:54.065Z,96350.90
2022-08-24T15:19:41.170Z,96350.77
2022-08-24T15:22:22.099Z,96350.83
2022-08-24T15:25:11.518Z,96346.63
2022-08-24T15:27:45.824Z,96350.41
2022-08-24T15:30:27.518Z,96347.85
2022-08-24T15:33:05.955Z,96349.55
2022-08-24T15:35:46.842Z,96348.42
2022-08-24T15:38:18.373Z,96348.30
2022-08-24T15:40:49.156Z,96351.99
2022-08-24T15:43:18.357Z,96352.16
2022-08-24T15:45:51.444Z,96354.80
2022-08-24T15:48:26.023Z,96349.75
2022-08-24T15:50:56.125Z,96353.00
2022-08-24T15:53:31.869Z,96354.45
2022-08-24T15:56:20.622Z,96355.28
2022-08-24T15:58:50.329Z,96354.50
2022-08-24T16:01:46.756Z,96353.71
2022-08-24T16:04:40.449Z,96349.05
2022-08-24T16:07:14.609Z,96349.80
2022-08-24T16:09:43.449Z,96347.20
2022-08-24T16:12:23.238Z,96346.13
2022-08-24T16:15:07.708Z,96343.59
2022-08-24T16:17:51.724Z,96343.94
2022-08-24T16:20:23.046Z,96349.54
2022-08-24T16:23:03.260Z,96353.47
2022-08-24T16:25:39.845Z,96353.34
2022-08-24T16:28:39.209Z,96353.68
2022-08-24T16:31:08.780Z,96358.13
2022-08-24T16:33:47.703Z,96363.45
2022-08-24T16:36:19.109Z,96364.49
2022-08-24T16:38:50.809Z,96361.38
2022-08-24T16:41:23.010Z,96364.84
2022-08-24T16:43:52.010Z,96367.83
2022-08-24T16:46:23.681Z,96367.65
2022-08-24T16:48:54.370Z,96370.23
2022-08-24T16:51:24.895Z,96367.84
2022-08-24T16:53:54.027Z,96370.36
2022-08-24T16:56:23.076Z,96372.08
2022-08-24T16:58:52.342Z,96373.41
2022-08-24T17:01:25.648Z,96374.90
2022-08-24T17:03:56.150Z,96369.15
2022-08-24T17:06:25.321Z,96374.71
2022-08-24T17:08:53.813Z,96374.36
2022-08-24T17:11:22.149Z,96374.45
2022-08-24T17:13:53.044Z,96376.14
2022-08-24T17:16:22.096Z,96384.40
2022-08-24T17:18:52.200Z,96385.57
2022-08-24T17:21:20.588Z,96383.78
2022-08-24T17:23:49.341Z,96390.95
2022-08-24T17:26:21.817Z,96390.02
2022-08-24T17:28:55.641Z,96392.23
2022-08-24T17:31:31.701Z,96394.64
2022-08-24T17:34:00.755Z,96394.48
2022-08-24T17:36:32.335Z,96395.88
2022-08-24T17:39:03.988Z,96399.02
2022-08-24T17:41:33.075Z,96406.46
2022-08-24T17:44:01.478Z,96411.29
2022-08-24T17:46:31.616Z,96416.52
2022-08-24T17:49:04.933Z,96422.31
2022-08-24T17:51:36.984Z,96422.23
2022-08-24T17:54:07.758Z,96419.45
2022-08-24T17:56:41.207Z,96419.68
2022-08-24T17:59:24.014Z,96424.32
2022-08-24T18:02:07.383Z,96427.70
2022-08-24T18:04:38.182Z,96433.54
2022-08-24T18:07:11.723Z,96436.11
2022-08-24T18:09:48.408Z,96434.71
2022-08-24T18:12:23.152Z,96437.94
2022-08-24T18:14:52.538Z,96437.49
2022-08-24T18:17:36.376Z,96444.30
2022-08-24T18:20:09.946Z,96444.21
2022-08-24T18:22:47.215Z,96446.64
2022-08-24T18:25:23.380Z,96449.59
2022-08-24T18:27:55.006Z,96454.21
2022-08-24T18:30:30.397Z,96450.95
2022-08-24T18:33:01.945Z,96450.23
2022-08-24T18:35:31.092Z,96453.92
2022-08-24T18:37:59.425Z,96453.90
2022-08-24T18:40:32.993Z,96457.65
2022-08-24T18:43:05.662Z,96457.24
2022-08-24T18:45:35.755Z,96461.99
2022-08-24T18:48:05.293Z,96459.64
2022-08-24T18:50:37.749Z,96456.93
2022-08-24T18:53:09.191Z,96459.34
2022-08-24T18:55:39.245Z,96455.61
2022-08-24T18:58:07.897Z,96460.58
2022-08-24T19:00:36.361Z,96460.10
2022-08-24T19:03:12.968Z,96464.77
2022-08-24T19:05:41.536Z,96462.34
2022-08-24T19:08:13.972Z,96466.00
2022-08-24T19:10:43.612Z,96465.70
2022-08-24T19:13:20.147Z,96463.36
2022-08-24T19:15:49.806Z,96464.38
2022-08-24T19:18:21.515Z,96466.23
2022-08-24T19:20:57.105Z,96468.92
2022-08-24T19:23:35.254Z,96469.70
2022-08-24T19:26:07.338Z,96473.89
2022-08-24T19:28:35.757Z,96475.59
2022-08-24T19:31:11.019Z,96474.45
2022-08-24T19:33:44.189Z,96475.02
2022-08-24T19:36:15.163Z,96473.89
2022-08-24T19:38:43.474Z,96474.41
2022-08-24T19:41:12.893Z,96471.29
2022-08-24T19:44:01.516Z,96474.98
2022-08-24T19:46:30.021Z,96477.70
2022-08-24T19:48:58.538Z,96478.96
2022-08-24T19:51:27.222Z,96480.09
2022-08-24T19:53:55.768Z,96481.00
2022-08-24T19:56:24.591Z,96480.83
2022-08-24T19:58:58.855Z,96481.71
2022-08-24T20:01:31.709Z,96480.58
2022-08-24T20:04:01.899Z,96484.02
2022-08-24T20:06:33.635Z,96487.34
2022-08-24T20:09:04.742Z,96489.67
2022-08-24T20:11:33.593Z,96490.73
2022-08-24T20:14:03.001Z,96494.77
2022-08-24T20:16:44.329Z,96492.41
2022-08-24T20:19:13.344Z,96493.02
2022-08-24T20:21:41.842Z,96495.27
2022-08-24T20:24:11.436Z,96500.00
2022-08-24T20:26:43.769Z,96495.25
2022-08-24T20:29:13.706Z,96496.34
2022-08-24T20:31:42.651Z,96492.36
2022-08-24T20:34:12.111Z,96491.00
2022-08-24T20:36:46.243Z,96489.61
2022-08-24T20:39:18.309Z,96493.00
2022-08-24T20:41:46.646Z,96493.33
2022-08-24T20:44:15.005Z,96495.70
2022-08-24T20:46:46.492Z,96492.05
2022-08-24T20:49:17.116Z,96486.20
2022-08-24T20:51:47.884Z,96489.53
2022-08-24T20:54:16.591Z,96489.73
2022-08-24T20:56:45.407Z,96496.61
2022-08-24T20:59:15.675Z,96501.91
2022-08-24T21:01:43.998Z,96498.71
2022-08-24T21:04:12.442Z,96500.72
2022-08-24T21:06:42.897Z,96503.62
2022-08-24T21:09:12.806Z,96511.39
2022-08-24T21:11:44.151Z,96509.98
2022-08-24T21:14:13.072Z,96507.17
2022-08-24T21:16:44.603Z,96509.05
2022-08-24T21:19:18.102Z,96505.54
2022-08-24T21:21:47.491Z,96506.92
2022-08-24T21:24:16.290Z,96506.52
2022-08-24T21:26:45.130Z,96502.27
2022-08-24T21:29:13.861Z,96513.39
2022-08-24T21:32:02.134Z,96514.33
2022-08-24T21:34:43.192Z,96512.89
2022-08-24T21:37:15.579Z,96508.07
2022-08-24T21:39:46.836Z,96502.33
2022-08-24T21:42:17.640Z,96502.98
2022-08-24T21:44:48.661Z,96497.75
2022-08-24T21:47:17.679Z,96500.96
2022-08-24T21:49:45.999Z,96504.10
2022-08-24T21:52:14.390Z,96505.90
2022-08-24T21:54:42.718Z,96500.24
2022-08-24T21:57:11.133Z,96497.86
2022-08-24T21:59:39.601Z,96500.36
2022-08-24T22:02:08.126Z,96500.17
2022-08-24T22:04:39.158Z,96498.18
2022-08-24T22:07:07.527Z,96498.64
2022-08-24T22:09:35.844Z,96501.63
2022-08-24T22:12:08.177Z,96500.23
2022-08-24T22:14:36.560Z,96503.61
2022-08-24T22:17:04.921Z,96501.04
2022-08-24T22:19:33.489Z,96501.84
2022-08-24T22:22:01.931Z,96500.44
2022-08-24T22:24:30.263Z,96501.95
2022-08-24T22:26:58.603Z,96498.51
2022-08-24T22:29:26.971Z,96497.48
2022-08-24T22:31:55.573Z,96497.02
2022-08-24T22:34:25.865Z,96490.77
2022-08-24T22:36:57.153Z,96493.48
2022-08-24T22:39:25.942Z,96489.36
2022-08-24T22:41:54.407Z,96486.89
2022-08-24T22:44:24.326Z,96488.53
2022-08-24T22:46:56.286Z,96483.95
2022-08-24T22:49:28.124Z,96485.78
2022-08-24T22:51:57.311Z,96485.66
2022-08-24T22:54:26.120Z,96480.41
2022-08-24T22:56:56.136Z,96475.91
2022-08-24T22:59:27.806Z,96475.71
2022-08-24T23:01:58.075Z,96476.80
2022-08-24T23:04:33.781Z,96474.80
2022-08-24T23:07:04.122Z,96470.92
2022-08-24T23:09:44.372Z,96467.10
2022-08-24T23:12:20.469Z,96466.21
2022-08-24T23:14:50.843Z,96463.30
2022-08-24T23:17:20.649Z,96468.55
2022-08-24T23:20:05.948Z,96460.38
2022-08-24T23:22:38.719Z,96461.30
2022-08-24T23:25:09.860Z,96461.10
2022-08-24T23:27:39.021Z,96457.85
2022-08-24T23:30:13.609Z,96452.34
2022-08-24T23:32:43.979Z,96453.94
2022-08-24T23:35:12.379Z,96451.86
2022-08-24T23:37:41.103Z,96455.37
2022-08-24T23:40:10.506Z,96451.30
2022-08-24T23:42:39.060Z,96451.97
2022-08-24T23:45:08.370Z,96454.52
2022-08-24T23:47:41.074Z,96455.64
2022-08-24T23:50:11.290Z,96457.70
2022-08-24T23:52:40.518Z,96455.63
2022-08-24T23:55:20.075Z,96453.60
2022-08-24T23:57:49.288Z,96451.81
